• Join FlightAware (Why Join?)
  • Login
  • US Flag 
05:56AM EDT


 

Airport Tracker/Info


-or-


 

Live Flight TrackerFlight Track Log ✈ N400PU ✈ 05-Apr-2013 ✈ KLAF - KFWA

Flight Track Log - Related Links

Times and Time Zones

All times are in EDT time to prevent confusion due to time zone crossing. See the N400PU flight status page for this flight to view local times or setup timezone preferences in your user account.

Time Position Orientation Groundspeed Altitude Reporting Facility
EDT Latitude Longitude Course Direction KTS MPH feet Rate Location/Type
12:52PM 40.4092 -86.9250 105° East 145 167 1,400  Level Chicago Center
12:53PM 40.4039 -86.9000 105° East 167 192 2,300 2,400 Climbing Chicago Center
12:54PM 40.3903 -86.8172 102° East 228 262 4,800 2,160 Climbing Chicago Center
12:55PM 40.3828 -86.7581 99° East 233 268 6,200 1,860 Climbing Chicago Center
12:56PM 40.3711 -86.6697 100° East 242 278 8,200 1,980 Climbing Chicago Center
12:56PM 40.3658 -86.6356 101° East 246 283 8,900 1,620 Climbing Chicago Center
12:57PM 40.3828 -86.5753 70° East 287 330 9,900 1,080 Climbing Chicago Center
12:57PM 40.4006 -86.5367 59° Northeast 293 337 10,000 60 Climbing Chicago Center
12:58PM 40.4300 -86.4797 56° Northeast 308 354 10,000  Level Chicago Center
12:58PM 40.4481 -86.4358 62° Northeast 316 364 10,000  Level Chicago Center
12:59PM 40.4744 -86.3756 60° Northeast 322 371 10,000  Level Chicago Center
01:00PM 40.5289 -86.2533 60° Northeast 327 376 10,000  Level Chicago Center
01:00PM 40.5431 -86.2172 63° Northeast 330 380 10,000  Level Chicago Center
01:01PM 40.5747 -86.1458 60° Northeast 332 382 10,000 -240 Level Chicago Center
01:02PM 40.6264 -86.0219 61° Northeast 306 352 9,600 -540 Descending Chicago Center
01:03PM 40.6592 -85.9517 58° Northeast 292 336 9,000 -360 Descending Chicago Center
01:04PM 40.6997 -85.8531 61° Northeast 282 325 9,000  Level Chicago Center
01:05PM 40.7381 -85.7611 61° Northeast 285 328 9,000  Level Chicago Center
01:06PM 40.7761 -85.6711 61° Northeast 284 327 9,000 -240 Level Chicago Center
01:07PM 40.8156 -85.5803 60° Northeast 285 328 8,600 -1,080 Descending Chicago Center
01:08PM 40.8519 -85.4942 61° Northeast 276 318 6,800 -2,160 Descending Chicago Center
01:09PM 40.8931 -85.3961 61° Northeast 261 300 4,200 -2,220 Descending Chicago Center
01:10PM 40.9033 -85.3128 81° East 255 293 2,300 -1,080 Descending Chicago Center
01:11PM 40.9264 -85.2550 62° Northeast 210 242 2,000 -300 Descending Chicago Center
01:12PM 40.9531 -85.2122 50° Northeast 199 229 1,800 -240 Descending Chicago Center
01:14PM 40.9667 -85.1833 61° Northeast  Level FlightAware Approximate